createdAt,value
2023-05-14T00:01:39.321Z,101758.06
2023-05-14T00:04:11.893Z,101751.81
2023-05-14T00:06:41.873Z,101750.75
2023-05-14T00:09:11.790Z,101753.44
2023-05-14T00:11:41.937Z,101747.78
2023-05-14T00:14:11.873Z,101744.09
2023-05-14T00:16:41.870Z,101744.84
2023-05-14T00:19:14.650Z,101744.91
2023-05-14T00:21:44.683Z,101742.97
2023-05-14T00:24:14.710Z,101738.28
2023-05-14T00:26:44.725Z,101741.72
2023-05-14T00:29:14.854Z,101733.91
2023-05-14T00:31:44.901Z,101742.56
2023-05-14T00:34:17.428Z,101739.84
2023-05-14T00:37:07.032Z,101735.28
2023-05-14T00:39:39.470Z,101734.38
2023-05-14T00:42:16.144Z,101721.00
2023-05-14T00:44:51.728Z,101725.38
2023-05-14T00:47:35.115Z,101734.25
2023-05-14T00:50:09.931Z,101727.31
2023-05-14T00:52:43.601Z,101728.22
2023-05-14T00:55:22.594Z,101722.94
2023-05-14T00:57:53.738Z,101722.84
2023-05-14T01:00:24.170Z,101725.47
2023-05-14T01:02:54.389Z,101725.47
2023-05-14T01:05:28.929Z,101716.19
2023-05-14T01:08:05.643Z,101718.91
2023-05-14T01:10:42.167Z,101723.13
2023-05-14T01:13:16.863Z,101714.31
2023-05-14T01:15:47.674Z,101712.41
2023-05-14T01:18:21.647Z,101714.41
2023-05-14T01:20:59.136Z,101718.00
2023-05-14T01:23:34.226Z,101712.91
2023-05-14T01:26:10.109Z,101713.94
2023-05-14T01:29:05.213Z,101706.75
2023-05-14T01:32:01.430Z,101701.66
2023-05-14T01:36:10.972Z,101700.91
2023-05-14T01:39:19.823Z,101703.63
2023-05-14T01:45:25.963Z,101705.63
2023-05-14T01:47:56.501Z,101697.84
2023-05-14T01:50:26.541Z,101693.31
2023-05-14T01:52:57.003Z,101693.31
2023-05-14T01:55:36.020Z,101691.50
2023-05-14T01:58:09.803Z,101723.59
2023-05-14T02:00:51.000Z,101713.22
2023-05-14T02:03:20.866Z,101697.44
2023-05-14T02:09:00.038Z,101713.53
2023-05-14T02:20:52.287Z,101722.06
2023-05-14T02:23:31.071Z,101710.81
2023-05-14T02:26:09.799Z,101703.72
2023-05-14T02:28:39.776Z,101695.94
2023-05-14T02:31:09.615Z,101695.94
2023-05-14T02:33:39.617Z,101697.56
2023-05-14T02:36:12.294Z,101704.09
2023-05-14T02:38:42.126Z,101696.97
2023-05-14T02:41:12.065Z,101702.88
2023-05-14T02:43:41.903Z,101688.66
2023-05-14T02:46:11.748Z,101695.47
2023-05-14T02:48:41.701Z,101700.41
2023-05-14T02:51:16.360Z,101703.13
2023-05-14T02:53:46.445Z,101699.66
2023-05-14T02:56:16.665Z,101697.78
2023-05-14T02:58:46.594Z,101691.88
2023-05-14T03:01:18.980Z,101686.75
2023-05-14T03:03:49.577Z,101688.59
2023-05-14T03:06:22.580Z,101690.22
2023-05-14T03:08:52.548Z,101682.19
2023-05-14T03:11:22.430Z,101682.97
2023-05-14T03:13:52.384Z,101681.91
2023-05-14T03:16:22.314Z,101686.44
2023-05-14T03:18:52.968Z,101678.56
2023-05-14T03:21:25.621Z,101682.19
2023-05-14T03:23:55.758Z,101679.50
2023-05-14T03:26:25.639Z,101685.22
2023-05-14T03:28:56.168Z,101689.47
2023-05-14T03:31:26.281Z,101686.78
2023-05-14T03:33:59.620Z,101683.22
2023-05-14T03:36:32.178Z,101696.22
2023-05-14T03:39:03.412Z,101682.34
2023-05-14T03:41:33.363Z,101685.78
2023-05-14T03:44:03.518Z,101690.91
2023-05-14T03:46:33.305Z,101694.38
2023-05-14T03:49:03.642Z,101696.16
2023-05-14T03:51:36.208Z,101691.75
2023-05-14T03:54:08.365Z,101685.75
2023-05-14T03:56:38.285Z,101687.22
2023-05-14T03:59:08.200Z,101688.81
2023-05-14T04:01:38.080Z,101690.38
2023-05-14T04:04:08.211Z,101686.88
2023-05-14T04:06:40.698Z,101692.22
2023-05-14T04:09:11.042Z,101689.75
2023-05-14T04:11:40.853Z,101689.81
2023-05-14T04:14:10.755Z,101681.38
2023-05-14T04:16:40.871Z,101683.03
2023-05-14T04:19:11.038Z,101691.75
2023-05-14T04:21:43.712Z,101690.69
2023-05-14T04:24:13.549Z,101694.31
2023-05-14T04:26:43.364Z,101687.00
2023-05-14T04:29:13.169Z,101692.22
2023-05-14T04:31:43.402Z,101692.13
2023-05-14T04:34:13.385Z,101689.59
2023-05-14T04:36:45.912Z,101691.31
2023-05-14T04:39:15.837Z,101687.00
2023-05-14T04:41:45.708Z,101697.59
2023-05-14T04:44:16.127Z,101688.91
2023-05-14T04:46:45.914Z,101687.59
2023-05-14T04:49:15.768Z,101685.53
2023-05-14T04:51:48.377Z,101687.66
2023-05-14T04:54:18.272Z,101684.34
2023-05-14T04:56:48.089Z,101682.19
2023-05-14T04:59:17.901Z,101685.09
2023-05-14T05:01:48.070Z,101687.31
2023-05-14T05:04:18.166Z,101695.66
2023-05-14T05:06:50.952Z,101692.56
2023-05-14T05:09:20.990Z,101690.38
2023-05-14T05:11:50.727Z,101688.78
2023-05-14T05:14:20.921Z,101680.38
2023-05-14T05:16:50.876Z,101679.75
2023-05-14T05:19:26.527Z,101680.03
2023-05-14T05:22:04.819Z,101688.00
2023-05-14T05:24:34.823Z,101689.25
2023-05-14T05:27:05.667Z,101679.88
2023-05-14T05:29:35.260Z,101682.72
2023-05-14T05:32:05.173Z,101689.94
2023-05-14T05:34:35.112Z,101691.88
2023-05-14T05:37:09.467Z,101695.69
2023-05-14T05:39:39.383Z,101686.94
2023-05-14T05:42:10.631Z,101693.19
2023-05-14T05:44:40.487Z,101697.16
2023-05-14T05:47:10.587Z,101692.94
2023-05-14T05:49:40.318Z,101689.81
2023-05-14T05:52:13.253Z,101695.28
2023-05-14T05:54:43.007Z,101690.31
2023-05-14T05:57:12.833Z,101683.44
2023-05-14T05:59:42.649Z,101691.78
2023-05-14T06:02:12.669Z,101690.34
2023-05-14T06:04:42.557Z,101681.88
2023-05-14T06:07:15.006Z,101685.53
2023-05-14T06:09:44.819Z,101693.78
2023-05-14T06:12:14.581Z,101683.31
2023-05-14T06:14:44.434Z,101682.56
2023-05-14T06:17:14.294Z,101690.63
2023-05-14T06:19:44.117Z,101689.09
2023-05-14T06:22:16.797Z,101700.75
2023-05-14T06:24:46.597Z,101690.34
2023-05-14T06:27:16.497Z,101682.53
2023-05-14T06:32:31.394Z,101686.41
2023-05-14T06:35:01.404Z,101687.41
2023-05-14T06:37:34.417Z,101689.44
2023-05-14T06:40:04.786Z,101683.41
2023-05-14T06:42:34.855Z,101684.56
2023-05-14T06:45:08.786Z,101686.41
2023-05-14T06:47:38.920Z,101689.34
2023-05-14T06:50:10.898Z,101686.00
2023-05-14T06:52:44.165Z,101688.75
2023-05-14T06:55:14.256Z,101691.72
2023-05-14T06:57:44.825Z,101688.31
2023-05-14T07:00:15.835Z,101693.66
2023-05-14T07:02:46.012Z,101684.97
2023-05-14T07:05:16.435Z,101678.03
2023-05-14T07:07:49.140Z,101672.00
2023-05-14T07:10:19.345Z,101670.34
2023-05-14T07:12:49.516Z,101677.69
2023-05-14T07:15:19.695Z,101667.22
2023-05-14T07:17:49.743Z,101668.19
2023-05-14T07:20:19.879Z,101663.88
2023-05-14T07:22:52.524Z,101671.16
2023-05-14T07:25:22.444Z,101672.94
2023-05-14T07:27:52.666Z,101662.34
2023-05-14T07:30:23.244Z,101661.53
2023-05-14T07:32:53.655Z,101662.53
2023-05-14T07:35:23.982Z,101655.53
2023-05-14T07:37:56.859Z,101654.72
2023-05-14T07:40:27.856Z,101661.03
2023-05-14T07:42:57.967Z,101653.19
2023-05-14T07:45:28.066Z,101647.84
2023-05-14T07:47:58.468Z,101641.75
2023-05-14T07:50:28.514Z,101646.13
2023-05-14T07:53:01.230Z,101652.41
2023-05-14T07:55:31.685Z,101650.84
2023-05-14T07:58:01.526Z,101657.13
2023-05-14T08:00:31.682Z,101646.53
2023-05-14T08:03:01.946Z,101642.19
2023-05-14T08:05:33.174Z,101644.88
2023-05-14T08:08:05.905Z,101639.69
2023-05-14T08:10:36.134Z,101634.38
2023-05-14T08:13:06.507Z,101638.78
2023-05-14T08:15:36.651Z,101637.00
2023-05-14T08:18:07.101Z,101640.59
2023-05-14T08:20:37.089Z,101638.81
2023-05-14T08:23:10.092Z,101632.59
2023-05-14T08:25:40.212Z,101626.41
2023-05-14T08:28:10.537Z,101629.06
2023-05-14T08:30:40.673Z,101626.41
2023-05-14T08:33:10.811Z,101622.88
2023-05-14T08:35:40.912Z,101621.97
2023-05-14T08:38:13.741Z,101622.88
2023-05-14T08:40:44.588Z,101625.50
2023-05-14T08:43:15.137Z,101628.16
2023-05-14T08:45:45.163Z,101623.75
2023-05-14T08:48:19.077Z,101619.22
2023-05-14T08:50:49.924Z,101626.22
2023-05-14T08:53:22.670Z,101608.47
2023-05-14T08:55:54.164Z,101606.53
2023-05-14T08:58:25.921Z,101607.19
2023-05-14T09:00:57.072Z,101608.09
2023-05-14T09:03:27.369Z,101610.56
2023-05-14T09:05:59.370Z,101603.22
2023-05-14T09:08:33.579Z,101597.69
2023-05-14T09:11:03.677Z,101591.09
2023-05-14T09:13:34.084Z,101591.75
2023-05-14T09:16:04.557Z,101601.25
2023-05-14T09:18:34.743Z,101587.09
2023-05-14T09:21:05.097Z,101596.38
2023-05-14T09:23:37.892Z,101585.13
2023-05-14T09:26:08.743Z,101588.63
2023-05-14T09:28:38.878Z,101582.75
2023-05-14T09:31:08.949Z,101580.13
2023-05-14T09:33:39.110Z,101577.66
2023-05-14T09:36:09.890Z,101575.22
2023-05-14T09:38:42.767Z,101581.44
2023-05-14T09:41:13.015Z,101577.31
2023-05-14T09:43:43.121Z,101576.63
2023-05-14T09:46:13.530Z,101567.84
2023-05-14T09:48:43.509Z,101578.59
2023-05-14T09:51:14.514Z,101572.09
2023-05-14T09:53:48.095Z,101567.34
2023-05-14T09:56:19.106Z,101577.25
2023-05-14T09:58:49.199Z,101562.31
2023-05-14T10:01:21.840Z,101562.00
2023-05-14T10:03:52.750Z,101553.09
2023-05-14T10:06:26.821Z,101546.75
2023-05-14T10:09:00.466Z,101552.59
2023-05-14T10:11:34.987Z,101563.03
2023-05-14T10:14:08.144Z,101559.81
2023-05-14T10:16:41.143Z,101560.06
2023-05-14T10:19:13.279Z,101554.78
2023-05-14T10:21:44.573Z,101554.91
2023-05-14T10:24:17.610Z,101551.34
2023-05-14T10:26:48.652Z,101559.09
2023-05-14T10:29:18.723Z,101550.47
2023-05-14T10:31:54.004Z,101546.84
2023-05-14T10:34:37.997Z,101544.09
2023-05-14T10:37:08.728Z,101535.00
2023-05-14T10:40:01.080Z,101538.03
2023-05-14T10:42:32.264Z,101532.91
2023-05-14T10:45:06.678Z,101532.38
2023-05-14T10:47:37.630Z,101533.34
2023-05-14T10:50:09.719Z,101537.88
2023-05-14T10:52:40.124Z,101530.13
2023-05-14T10:55:15.275Z,101529.63
2023-05-14T10:57:46.589Z,101520.94
2023-05-14T11:00:17.846Z,101520.97
2023-05-14T11:02:48.202Z,101520.34
2023-05-14T11:05:18.440Z,101518.72
2023-05-14T11:07:50.217Z,101509.13
2023-05-14T11:10:26.137Z,101512.09
2023-05-14T11:12:56.392Z,101505.94
2023-05-14T11:15:28.749Z,101506.09
2023-05-14T11:17:59.015Z,101499.84
2023-05-14T11:20:29.338Z,101499.88
2023-05-14T11:22:59.351Z,101503.53
2023-05-14T11:25:31.962Z,101493.84
2023-05-14T11:28:02.005Z,101491.06
2023-05-14T11:30:34.540Z,101487.59
2023-05-14T11:33:04.692Z,101484.00
2023-05-14T11:35:35.421Z,101471.41
2023-05-14T11:38:06.822Z,101470.69
2023-05-14T11:40:40.566Z,101465.41
2023-05-14T11:43:10.571Z,101480.53
2023-05-14T11:45:40.695Z,101477.25
2023-05-14T11:48:18.228Z,101473.69
2023-05-14T11:50:49.886Z,101474.47
2023-05-14T11:53:21.288Z,101470.31
2023-05-14T11:55:54.402Z,101460.50
2023-05-14T11:58:24.810Z,101461.44
2023-05-14T12:00:54.685Z,101460.78
2023-05-14T12:03:26.793Z,101459.84
2023-05-14T12:05:59.868Z,101455.41
2023-05-14T12:08:31.467Z,101453.59
2023-05-14T12:11:04.646Z,101457.06
2023-05-14T12:13:35.024Z,101448.97
2023-05-14T12:16:05.681Z,101449.59
2023-05-14T12:18:35.987Z,101445.72
2023-05-14T12:21:08.143Z,101440.97
2023-05-14T12:23:38.401Z,101441.84
2023-05-14T12:26:12.233Z,101435.25
2023-05-14T12:28:44.755Z,101433.13
2023-05-14T12:31:15.418Z,101418.88
2023-05-14T12:37:12.747Z,101416.41
2023-05-14T12:39:46.341Z,101415.09
2023-05-14T12:42:51.917Z,101409.00
2023-05-14T12:45:43.495Z,101391.13
2023-05-14T12:48:15.258Z,101387.28
2023-05-14T12:51:07.314Z,101387.16
2023-05-14T12:53:55.018Z,101394.47
2023-05-14T12:56:38.294Z,101384.84
2023-05-14T12:59:29.378Z,101391.66
2023-05-14T13:02:17.429Z,101381.97
2023-05-14T13:05:12.042Z,101380.44
2023-05-14T13:11:39.397Z,101366.81
2023-05-14T13:14:11.899Z,101376.13
2023-05-14T13:16:41.731Z,101377.13
2023-05-14T13:19:11.819Z,101372.34
2023-05-14T13:21:41.836Z,101362.59
2023-05-14T13:24:11.878Z,101364.50
2023-05-14T13:26:41.829Z,101361.19
2023-05-14T13:29:14.367Z,101377.56
2023-05-14T13:31:47.307Z,101365.34
2023-05-14T13:34:17.631Z,101370.84
2023-05-14T13:36:50.051Z,101362.25
2023-05-14T13:39:23.034Z,101357.00
2023-05-14T13:41:53.549Z,101353.47
2023-05-14T13:44:25.758Z,101344.72
2023-05-14T13:46:55.880Z,101346.41
2023-05-14T13:49:25.817Z,101345.41
2023-05-14T13:51:55.721Z,101344.47
2023-05-14T13:54:25.646Z,101343.47
2023-05-14T13:56:55.577Z,101339.72
2023-05-14T13:59:28.074Z,101340.56
2023-05-14T14:01:58.024Z,101340.63
2023-05-14T14:04:29.227Z,101342.31
2023-05-14T14:06:59.082Z,101330.88
2023-05-14T14:09:29.064Z,101325.47
2023-05-14T14:11:58.864Z,101333.63
2023-05-14T14:14:31.537Z,101326.94
2023-05-14T14:17:01.363Z,101325.03
2023-05-14T14:19:31.285Z,101319.69
2023-05-14T14:22:01.291Z,101322.34
2023-05-14T14:24:31.307Z,101314.22
2023-05-14T14:27:02.436Z,101320.38
2023-05-14T14:29:35.644Z,101317.69
2023-05-14T14:32:05.620Z,101318.69
2023-05-14T14:34:35.457Z,101307.13
2023-05-14T14:37:05.281Z,101310.06
2023-05-14T14:39:35.037Z,101310.88
2023-05-14T14:42:04.994Z,101308.09
2023-05-14T14:44:37.554Z,101299.16
2023-05-14T14:47:08.115Z,101305.59
2023-05-14T14:49:37.924Z,101316.50
2023-05-14T14:52:08.203Z,101310.56
2023-05-14T14:54:37.932Z,101306.41
2023-05-14T14:57:08.536Z,101310.06
2023-05-14T14:59:41.531Z,101299.59
2023-05-14T15:02:15.017Z,101309.50
2023-05-14T15:04:45.135Z,101307.06
2023-05-14T15:07:16.146Z,101311.22
2023-05-14T15:09:46.160Z,101309.69
2023-05-14T15:12:17.258Z,101305.44
2023-05-14T15:14:49.846Z,101303.75
2023-05-14T15:17:19.707Z,101310.09
2023-05-14T15:19:49.488Z,101308.28
2023-05-14T15:22:19.367Z,101306.56
2023-05-14T15:24:49.243Z,101305.72
2023-05-14T15:27:19.183Z,101305.69
2023-05-14T15:29:51.782Z,101298.56
2023-05-14T15:32:21.821Z,101304.78
2023-05-14T15:34:51.722Z,101311.06
2023-05-14T15:37:21.800Z,101298.63
2023-05-14T15:39:51.766Z,101300.44
2023-05-14T15:42:22.578Z,101295.09
2023-05-14T15:44:55.038Z,101289.78
2023-05-14T15:47:24.993Z,101283.53
2023-05-14T19:38:58.118Z,101264.56
2023-05-14T19:41:28.125Z,101268.06
2023-05-14T19:43:58.074Z,101261.03
2023-05-14T19:46:28.342Z,101261.88
2023-05-14T19:48:58.526Z,101260.09
2023-05-14T19:51:28.997Z,101261.84
2023-05-14T19:54:01.753Z,101258.28
2023-05-14T19:56:31.848Z,101254.75
2023-05-14T19:59:02.154Z,101258.25
2023-05-14T20:01:32.602Z,101256.50
2023-05-14T20:04:03.069Z,101264.25
2023-05-14T20:06:34.669Z,101259.81
2023-05-14T20:09:07.396Z,101261.47
2023-05-14T20:11:37.668Z,101249.91
2023-05-14T20:14:07.842Z,101254.31
2023-05-14T20:16:38.130Z,101260.41
2023-05-14T20:19:08.407Z,101269.25
2023-05-14T20:21:38.741Z,101254.09
2023-05-14T20:24:11.625Z,101250.59
2023-05-14T20:26:41.809Z,101255.88
2023-05-14T20:29:14.697Z,101255.75
2023-05-14T20:31:44.883Z,101250.31
2023-05-14T20:34:15.068Z,101247.69
2023-05-14T20:36:45.315Z,101246.81
2023-05-14T20:39:18.447Z,101249.38
2023-05-14T20:41:48.275Z,101246.75
2023-05-14T20:44:20.370Z,101245.88
2023-05-14T20:46:50.749Z,101246.72
2023-05-14T20:49:20.810Z,101237.00
2023-05-14T20:51:51.009Z,101236.97
2023-05-14T20:54:23.658Z,101237.88
2023-05-14T20:56:53.943Z,101233.47
2023-05-14T20:59:24.077Z,101230.84
2023-05-14T21:01:54.210Z,101227.31
2023-05-14T21:04:24.279Z,101225.47
2023-05-14T21:06:55.233Z,101222.84
2023-05-14T21:09:27.936Z,101214.81
2023-05-14T21:11:57.998Z,101220.03
2023-05-14T21:14:28.178Z,101215.56
2023-05-14T21:16:58.211Z,101215.63
2023-05-14T21:19:28.254Z,101212.97
2023-05-14T21:21:58.500Z,101210.31
2023-05-14T21:24:31.445Z,101202.41
2023-05-14T21:27:01.736Z,101204.13
2023-05-14T21:29:31.988Z,101200.56
2023-05-14T21:32:02.236Z,101200.50
2023-05-14T21:34:32.524Z,101194.31
2023-05-14T21:37:03.169Z,101199.56
2023-05-14T21:39:35.695Z,101199.53
2023-05-14T21:42:06.309Z,101198.66
2023-05-14T21:44:37.239Z,101198.66
2023-05-14T21:47:08.752Z,101184.56
2023-05-14T21:49:39.244Z,101195.13
2023-05-14T21:52:10.088Z,101195.97
2023-05-14T21:54:45.785Z,101195.03
2023-05-14T21:57:16.348Z,101194.06
2023-05-14T21:59:49.148Z,101197.56
2023-05-14T22:02:20.391Z,101193.16
2023-05-14T22:04:53.774Z,101191.38
2023-05-14T22:07:24.522Z,101191.38
2023-05-14T22:09:57.968Z,101188.75
2023-05-14T22:12:28.346Z,101185.19
2023-05-14T22:14:58.966Z,101185.16
2023-05-14T22:17:30.704Z,101186.91
2023-05-14T22:20:01.393Z,101177.03
2023-05-14T22:22:31.908Z,101179.66
2023-05-14T22:25:05.238Z,101178.81
2023-05-14T22:30:50.800Z,101167.28
2023-05-14T22:33:38.314Z,101166.38
2023-05-14T22:36:10.817Z,101165.44
2023-05-14T22:39:06.061Z,101166.25
2023-05-14T22:42:00.141Z,101156.53
2023-05-14T22:44:33.532Z,101159.16
2023-05-14T22:50:21.211Z,101152.03
2023-05-14T22:56:31.988Z,101144.91
2023-05-14T22:59:45.628Z,101141.34
2023-05-14T23:05:53.372Z,101137.78
2023-05-14T23:08:57.738Z,101138.56
2023-05-14T23:11:59.272Z,101124.47
2023-05-14T23:25:09.822Z,101122.41
2023-05-14T23:28:07.678Z,101111.81
2023-05-14T23:31:52.042Z,101110.81
2023-05-14T23:34:39.594Z,101110.72
2023-05-14T23:37:47.633Z,101106.28
2023-05-14T23:40:56.093Z,101095.63
2023-05-14T23:44:07.034Z,101102.59
2023-05-14T23:47:15.621Z,101091.09
2023-05-14T23:50:24.121Z,101091.06
2023-05-14T23:52:56.202Z,101080.41
2023-05-14T23:55:52.920Z,101083.78
